Victoria, Alabama
Current Conditions -  °F | °C
As of 11:56 PM on Saturday 25 Oct 2014 (Local Time) from KSXS Reporting Station
Clear Clear  
Wind Chill: 53°   Ceiling: Unl
Heat Index: 53°   Visibility: 10mi
Dew Point: 51°   Wind: 2mph
Humidity: 92%   Direction: 320°NW
Pressure: 30.07"   Gusts: NA
Location:  31.5584°N, 86.0569°W
Report Text: KSXS 260456Z AUTO 32002KT 10SM CLR 12/11 A3007 RMK AO2 SLP183 T01180106
Loading
Personal Weather Stations






























Interactive Weather Map
Tropical Storm Tracking
New forecast layout! Learn more

10-Day Weather Forecast

Advertisements
Track Severe Weather on mobile